createdAt,value
2017-07-10T00:00:04.853Z,81.30
2017-07-10T00:02:31.906Z,81.30
2017-07-10T00:04:59.902Z,81.40
2017-07-10T00:07:27.025Z,81.40
2017-07-10T00:09:54.066Z,81.50
2017-07-10T00:12:21.140Z,81.40
2017-07-10T00:14:48.767Z,81.40
2017-07-10T00:17:17.177Z,81.40
2017-07-10T00:19:44.463Z,81.40
2017-07-10T00:22:11.519Z,81.40
2017-07-10T00:24:38.558Z,81.40
2017-07-10T00:27:05.612Z,81.40
2017-07-10T00:29:32.654Z,81.40
2017-07-10T00:32:01.073Z,81.40
2017-07-10T00:34:28.174Z,81.40
2017-07-10T00:36:55.603Z,81.40
2017-07-10T00:39:22.649Z,81.30
2017-07-10T00:41:49.797Z,81.30
2017-07-10T00:44:19.745Z,81.20
2017-07-10T00:46:46.797Z,81.20
2017-07-10T00:49:15.716Z,81.20
2017-07-10T00:51:43.222Z,81.30
2017-07-10T00:54:10.347Z,81.30
2017-07-10T00:56:37.681Z,81.30
2017-07-10T00:59:04.729Z,81.30
2017-07-10T01:01:31.780Z,81.30
2017-07-10T01:03:59.756Z,81.40
2017-07-10T01:06:26.788Z,81.40
2017-07-10T01:08:53.837Z,81.40
2017-07-10T01:11:20.862Z,81.40
2017-07-10T01:13:48.346Z,81.40
2017-07-10T01:16:15.397Z,81.50
2017-07-10T01:18:42.548Z,81.40
2017-07-10T01:21:09.573Z,81.50
2017-07-10T01:23:37.013Z,81.50
2017-07-10T01:26:04.040Z,81.50
2017-07-10T01:28:31.086Z,81.50
2017-07-10T01:30:59.097Z,81.50
2017-07-10T01:33:26.245Z,81.50
2017-07-10T01:35:53.274Z,81.60
2017-07-10T01:38:21.677Z,81.60
2017-07-10T01:40:48.698Z,81.60
2017-07-10T01:43:16.172Z,81.60
2017-07-10T01:45:44.142Z,81.60
2017-07-10T01:48:11.289Z,81.60
2017-07-10T01:50:38.750Z,81.70
2017-07-10T01:53:05.794Z,81.70
2017-07-10T01:55:32.826Z,81.70
2017-07-10T01:58:01.245Z,81.80
2017-07-10T02:00:28.364Z,81.80
2017-07-10T02:02:55.826Z,81.80
2017-07-10T02:05:22.896Z,81.80
2017-07-10T02:07:50.022Z,81.80
2017-07-10T02:10:17.066Z,81.80
2017-07-10T02:12:44.485Z,81.80
2017-07-10T02:15:12.494Z,81.80
2017-07-10T02:17:39.546Z,81.80
2017-07-10T02:20:06.586Z,81.80
2017-07-10T02:22:33.632Z,81.80
2017-07-10T02:25:01.086Z,81.60
2017-07-10T02:27:29.050Z,81.60
2017-07-10T02:29:57.438Z,81.60
2017-07-10T02:32:24.480Z,81.60
2017-07-10T02:34:52.549Z,81.60
2017-07-10T02:37:19.993Z,81.50
2017-07-10T02:39:47.467Z,81.50
2017-07-10T02:42:15.454Z,81.50
2017-07-10T02:44:42.482Z,81.50
2017-07-10T02:47:10.465Z,81.60
2017-07-10T02:49:37.598Z,81.60
2017-07-10T02:52:04.642Z,81.60
2017-07-10T02:54:31.670Z,81.70
2017-07-10T02:57:00.177Z,81.60
2017-07-10T02:59:27.803Z,81.60
2017-07-10T03:01:54.877Z,81.70
2017-07-10T03:04:21.901Z,81.70
2017-07-10T03:06:49.385Z,81.60
2017-07-10T03:09:17.448Z,81.60
2017-07-10T03:11:44.478Z,81.60
2017-07-10T03:14:12.564Z,81.60
2017-07-10T03:16:39.618Z,81.60
2017-07-10T03:19:07.685Z,81.60
2017-07-10T03:21:34.773Z,81.60
2017-07-10T03:24:02.762Z,81.60
2017-07-10T03:26:29.781Z,81.60
2017-07-10T03:28:56.877Z,81.60
2017-07-10T03:31:24.298Z,81.60
2017-07-10T03:33:51.397Z,81.60
2017-07-10T03:36:18.421Z,81.60
2017-07-10T03:38:45.501Z,81.60
2017-07-10T03:41:12.641Z,81.60
2017-07-10T03:43:39.668Z,81.60
2017-07-10T03:46:07.109Z,81.60
2017-07-10T03:48:34.129Z,81.60
2017-07-10T03:51:01.238Z,81.50
2017-07-10T03:53:28.290Z,81.60
2017-07-10T03:55:55.330Z,81.50
2017-07-10T03:58:22.353Z,81.50
2017-07-10T04:00:49.426Z,81.60
2017-07-10T04:03:16.468Z,81.60
2017-07-10T04:05:43.907Z,81.60
2017-07-10T04:08:11.386Z,81.70
2017-07-10T04:10:38.529Z,81.70
2017-07-10T04:13:05.944Z,81.60
2017-07-10T04:15:33.034Z,81.60
2017-07-10T04:18:00.452Z,81.50
2017-07-10T04:20:27.477Z,81.50
2017-07-10T04:22:55.468Z,81.50
2017-07-10T04:25:22.554Z,81.50
2017-07-10T04:27:49.628Z,81.50
2017-07-10T04:30:16.701Z,81.50
2017-07-10T04:32:44.641Z,81.60
2017-07-10T04:35:11.664Z,81.60
2017-07-10T04:37:39.654Z,81.60
2017-07-10T04:40:06.678Z,81.60
2017-07-10T04:42:34.771Z,81.70
2017-07-10T04:45:01.785Z,81.70
2017-07-10T04:47:29.303Z,81.70
2017-07-10T04:49:56.277Z,81.70
2017-07-10T04:52:23.753Z,81.70
2017-07-10T04:54:50.779Z,81.70
2017-07-10T04:57:17.841Z,81.70
2017-07-10T04:59:45.265Z,81.90
2017-07-10T05:02:12.354Z,81.90
2017-07-10T05:04:39.398Z,81.80
2017-07-10T05:07:06.442Z,81.80
2017-07-10T05:09:33.589Z,81.90
2017-07-10T05:12:01.005Z,81.80
2017-07-10T05:14:29.022Z,81.80
2017-07-10T05:16:56.041Z,81.80
2017-07-10T05:19:23.086Z,81.80
2017-07-10T05:21:50.152Z,81.80
2017-07-10T05:24:17.609Z,81.80
2017-07-10T05:26:44.657Z,81.80
2017-07-10T05:29:12.113Z,81.90
2017-07-10T05:31:39.137Z,81.90
2017-07-10T05:34:06.184Z,81.90
2017-07-10T05:36:33.237Z,81.90
2017-07-10T05:39:00.676Z,82.00
2017-07-10T05:41:27.698Z,82.00
2017-07-10T05:43:54.721Z,82.10
2017-07-10T05:46:21.853Z,82.10
2017-07-10T05:48:48.874Z,82.10
2017-07-10T05:51:15.917Z,82.10
2017-07-10T05:53:42.957Z,82.20
2017-07-10T05:56:10.041Z,82.20
2017-07-10T05:58:37.061Z,82.20
2017-07-10T06:01:04.081Z,82.40
2017-07-10T06:03:32.061Z,82.30
2017-07-10T06:05:59.149Z,82.40
2017-07-10T06:08:26.189Z,82.40
2017-07-10T06:10:53.650Z,82.30
2017-07-10T06:13:21.105Z,82.30
2017-07-10T06:15:48.133Z,82.30
2017-07-10T06:18:15.609Z,82.40
2017-07-10T06:20:42.653Z,82.40
2017-07-10T06:23:11.050Z,82.40
2017-07-10T06:25:38.185Z,82.40
2017-07-10T06:28:05.232Z,82.40
2017-07-10T06:30:32.272Z,82.50
2017-07-10T06:32:59.733Z,82.50
2017-07-10T06:35:26.761Z,82.50
2017-07-10T06:37:54.201Z,82.60
2017-07-10T06:40:21.286Z,82.60
2017-07-10T06:42:48.329Z,82.60
2017-07-10T06:45:15.374Z,82.60
2017-07-10T06:47:42.425Z,82.70
2017-07-10T06:50:10.389Z,82.80
2017-07-10T06:52:37.417Z,82.70
2017-07-10T06:55:04.858Z,82.80
2017-07-10T06:57:31.933Z,82.80
2017-07-10T07:00:00.316Z,82.70
2017-07-10T07:02:27.340Z,82.70
2017-07-10T07:04:54.381Z,82.80
2017-07-10T07:07:21.405Z,82.80
2017-07-10T07:09:48.464Z,82.70
2017-07-10T07:12:15.491Z,82.70
2017-07-10T07:14:43.489Z,82.80
2017-07-10T07:17:10.518Z,82.80
2017-07-10T07:19:37.610Z,82.70
2017-07-10T07:22:04.785Z,82.60
2017-07-10T07:24:31.932Z,82.60
2017-07-10T07:26:59.057Z,82.70
2017-07-10T07:29:26.101Z,82.70
2017-07-10T07:31:53.561Z,83.10
2017-07-10T07:34:20.709Z,83.10
2017-07-10T07:36:48.146Z,83.10
2017-07-10T07:39:15.638Z,83.30
2017-07-10T07:41:42.683Z,83.30
2017-07-10T07:44:09.717Z,83.30
2017-07-10T07:46:36.865Z,83.30
2017-07-10T07:49:03.909Z,83.30
2017-07-10T07:51:30.941Z,83.30
2017-07-10T07:53:58.377Z,83.30
2017-07-10T07:56:25.462Z,83.30
2017-07-10T07:58:53.513Z,83.40
2017-07-10T08:01:20.537Z,83.40
2017-07-10T08:03:47.625Z,83.40
2017-07-10T08:06:14.650Z,83.50
2017-07-10T08:08:41.701Z,83.40
2017-07-10T08:11:10.053Z,83.50
2017-07-10T08:13:37.146Z,83.50
2017-07-10T08:16:04.169Z,83.60
2017-07-10T08:18:31.239Z,83.50
2017-07-10T08:20:58.261Z,83.40
2017-07-10T08:23:26.247Z,83.30
2017-07-10T08:25:54.639Z,83.20
2017-07-10T08:28:21.677Z,83.20
2017-07-10T08:30:48.708Z,83.20
2017-07-10T08:33:16.153Z,83.10
2017-07-10T08:35:43.177Z,83.10
2017-07-10T08:38:11.192Z,83.10
2017-07-10T08:40:38.608Z,83.10
2017-07-10T08:43:05.697Z,83.10
2017-07-10T08:45:33.654Z,83.00
2017-07-10T08:48:01.093Z,83.00
2017-07-10T08:50:28.125Z,83.00
2017-07-10T08:52:55.173Z,82.90
2017-07-10T08:55:22.262Z,82.90
2017-07-10T08:57:49.309Z,82.80
2017-07-10T09:00:16.335Z,82.80
2017-07-10T09:02:44.754Z,82.80
2017-07-10T09:05:11.778Z,82.80
2017-07-10T09:07:39.238Z,82.70
2017-07-10T09:10:06.276Z,82.70
2017-07-10T09:12:33.763Z,82.60
2017-07-10T09:15:00.784Z,82.50
2017-07-10T09:17:27.838Z,82.30
2017-07-10T09:19:54.937Z,82.30
2017-07-10T09:22:22.029Z,82.20
2017-07-10T09:24:49.077Z,82.10
2017-07-10T09:27:16.121Z,82.10
2017-07-10T09:29:43.164Z,82.10
2017-07-10T09:32:10.615Z,82.00
2017-07-10T09:34:38.081Z,81.90
2017-07-10T09:37:06.061Z,81.90
2017-07-10T09:39:33.097Z,81.90
2017-07-10T09:42:00.137Z,81.80
2017-07-10T09:44:27.596Z,81.60
2017-07-10T09:46:54.645Z,81.60
2017-07-10T09:49:21.789Z,81.60
2017-07-10T09:51:49.209Z,81.40
2017-07-10T09:54:16.250Z,81.40
2017-07-10T09:56:43.349Z,81.30
2017-07-10T09:59:10.493Z,81.30
2017-07-10T10:01:37.518Z,81.20
2017-07-10T10:04:05.609Z,81.10
2017-07-10T10:06:32.657Z,81.00
2017-07-10T10:09:00.732Z,81.00
2017-07-10T10:11:27.753Z,81.10
2017-07-10T10:13:55.742Z,81.00
2017-07-10T10:16:22.888Z,80.90
2017-07-10T10:18:50.037Z,80.80
2017-07-10T10:21:18.417Z,80.80
2017-07-10T10:23:45.568Z,80.80
2017-07-10T10:26:13.025Z,80.70
2017-07-10T10:28:41.009Z,80.80
2017-07-10T10:31:08.029Z,80.70
2017-07-10T10:33:35.493Z,80.60
2017-07-10T10:36:02.909Z,80.50
2017-07-10T10:38:30.918Z,80.50
2017-07-10T10:40:57.965Z,80.50
2017-07-10T10:43:25.024Z,80.40
2017-07-10T10:45:52.061Z,80.40
2017-07-10T10:48:19.206Z,80.40
2017-07-10T10:50:46.657Z,80.40
2017-07-10T10:53:15.042Z,80.30
2017-07-10T10:55:42.094Z,80.30
2017-07-10T10:58:09.181Z,80.30
2017-07-10T11:00:36.281Z,80.30
2017-07-10T11:03:03.737Z,80.20
2017-07-10T11:05:31.197Z,80.30
2017-07-10T11:07:58.237Z,80.30
2017-07-10T11:10:25.697Z,80.10
2017-07-10T11:12:54.082Z,80.10
2017-07-10T11:15:21.106Z,80.10
2017-07-10T11:17:48.577Z,80.00
2017-07-10T11:20:16.037Z,80.10
2017-07-10T11:22:43.081Z,80.10
2017-07-10T11:25:10.109Z,80.10
2017-07-10T11:27:37.554Z,80.10
2017-07-10T11:30:04.684Z,80.20
2017-07-10T11:32:32.632Z,79.90
2017-07-10T11:34:59.753Z,79.70
2017-07-10T11:37:27.745Z,79.50
2017-07-10T11:39:54.769Z,79.60
2017-07-10T11:42:22.769Z,79.70
2017-07-10T11:44:49.898Z,79.70
2017-07-10T11:47:17.953Z,79.70
2017-07-10T11:49:45.074Z,79.60
2017-07-10T11:52:12.118Z,79.60
2017-07-10T11:54:39.193Z,79.50
2017-07-10T11:57:06.649Z,79.40
2017-07-10T11:59:33.696Z,79.40
2017-07-10T12:02:01.978Z,79.10
2017-07-10T12:04:29.017Z,79.10
2017-07-10T12:06:57.414Z,79.30
2017-07-10T12:09:24.433Z,79.30
2017-07-10T12:11:51.876Z,79.20
2017-07-10T12:14:18.952Z,79.20
2017-07-10T12:16:45.998Z,79.10
2017-07-10T12:19:13.017Z,79.10
2017-07-10T12:21:40.090Z,78.80
2017-07-10T12:24:07.113Z,78.70
2017-07-10T12:26:34.157Z,78.70
2017-07-10T12:29:01.637Z,78.60
2017-07-10T12:31:29.098Z,78.80
2017-07-10T12:33:56.145Z,78.80
2017-07-10T12:36:23.185Z,78.90
2017-07-10T12:38:50.644Z,78.90
2017-07-10T12:41:17.795Z,78.90
2017-07-10T12:43:44.845Z,79.10
2017-07-10T12:46:11.990Z,79.00
2017-07-10T12:48:39.889Z,78.80
2017-07-10T12:51:07.008Z,78.60
2017-07-10T12:53:34.048Z,78.60
2017-07-10T12:56:01.510Z,78.20
2017-07-10T12:58:28.533Z,78.20
2017-07-10T13:00:55.617Z,78.30
2017-07-10T13:03:23.669Z,78.10
2017-07-10T13:05:50.713Z,78.10
2017-07-10T13:08:18.130Z,78.50
2017-07-10T13:10:45.173Z,78.50
2017-07-10T13:13:12.272Z,78.60
2017-07-10T13:15:39.317Z,78.70
2017-07-10T13:18:06.362Z,78.80
2017-07-10T13:20:33.510Z,78.80
2017-07-10T13:23:00.928Z,78.90
2017-07-10T13:25:28.941Z,78.90
2017-07-10T13:27:55.964Z,79.10
2017-07-10T13:30:23.437Z,78.70
2017-07-10T13:32:50.858Z,78.20
2017-07-10T13:35:17.941Z,78.20
2017-07-10T13:37:44.965Z,78.30
2017-07-10T13:40:11.986Z,78.40
2017-07-10T13:42:39.965Z,78.40
2017-07-10T13:45:07.049Z,78.30
2017-07-10T13:47:34.093Z,78.00
2017-07-10T13:50:01.517Z,77.30
2017-07-10T13:52:28.561Z,77.30
2017-07-10T13:54:55.590Z,77.10
2017-07-10T13:57:22.618Z,76.90
2017-07-10T13:59:50.617Z,76.80
2017-07-10T14:02:17.706Z,76.70
2017-07-10T14:04:45.706Z,76.70
2017-07-10T14:07:12.742Z,76.60
2017-07-10T14:09:39.841Z,76.50
2017-07-10T14:12:06.917Z,76.50
2017-07-10T14:14:33.945Z,76.70
2017-07-10T14:17:01.394Z,76.30
2017-07-10T14:19:30.733Z,76.30
2017-07-10T14:21:59.226Z,76.20
2017-07-10T14:24:26.274Z,76.20
2017-07-10T14:26:53.434Z,76.30
2017-07-10T14:29:20.465Z,76.30
2017-07-10T14:31:47.520Z,76.40
2017-07-10T14:34:14.578Z,76.30
2017-07-10T14:36:41.604Z,76.40
2017-07-10T14:39:09.601Z,76.20
2017-07-10T14:41:36.697Z,76.00
2017-07-10T14:44:04.173Z,75.90
2017-07-10T14:46:31.208Z,75.90
2017-07-10T14:48:58.272Z,75.70
2017-07-10T14:51:25.299Z,75.70
2017-07-10T14:53:52.339Z,75.60
2017-07-10T14:56:19.414Z,75.80
2017-07-10T14:58:50.290Z,75.80
2017-07-10T15:01:17.345Z,75.70
2017-07-10T15:03:44.393Z,75.60
2017-07-10T15:06:11.450Z,75.50
2017-07-10T15:08:38.938Z,75.50
2017-07-10T15:11:06.018Z,75.50
2017-07-10T15:13:33.130Z,75.60
2017-07-10T15:16:00.402Z,75.60
2017-07-10T15:18:28.451Z,75.40
2017-07-10T15:20:55.526Z,75.20
2017-07-10T15:23:22.636Z,75.40
2017-07-10T15:25:50.665Z,75.40
2017-07-10T15:28:17.781Z,75.40
2017-07-10T15:30:45.163Z,75.50
2017-07-10T15:33:12.252Z,75.50
2017-07-10T15:35:39.764Z,75.60
2017-07-10T15:38:06.911Z,75.60
2017-07-10T15:40:33.965Z,75.50
2017-07-10T15:43:01.142Z,75.50
2017-07-10T15:45:28.316Z,75.50
2017-07-10T15:47:55.515Z,75.50
2017-07-10T15:50:22.565Z,75.60
2017-07-10T15:52:49.663Z,75.70
2017-07-10T15:55:16.714Z,75.70
2017-07-10T15:57:43.753Z,75.90
2017-07-10T16:00:10.792Z,75.90
2017-07-10T16:02:38.252Z,75.90
2017-07-10T16:05:05.297Z,75.90
2017-07-10T16:07:32.347Z,76.10
2017-07-10T16:09:59.372Z,75.90
2017-07-10T16:12:26.845Z,75.40
2017-07-10T16:14:54.261Z,75.50
2017-07-10T16:17:21.306Z,75.50
2017-07-10T16:19:48.398Z,75.70
2017-07-10T16:22:15.544Z,75.70
2017-07-10T16:24:43.005Z,75.50
2017-07-10T16:27:10.050Z,75.50
2017-07-10T16:29:37.079Z,75.70
2017-07-10T16:32:04.555Z,76.00
2017-07-10T16:34:31.605Z,76.00
2017-07-10T16:36:58.649Z,76.10
2017-07-10T16:39:25.697Z,76.20
2017-07-10T16:41:53.766Z,76.20
2017-07-10T16:44:20.794Z,76.20
2017-07-10T16:46:47.836Z,76.40
2017-07-10T16:49:15.278Z,76.50
2017-07-10T16:51:42.365Z,76.50
2017-07-10T16:54:09.505Z,76.40
2017-07-10T16:56:36.978Z,76.00
2017-07-10T16:59:04.005Z,76.00
2017-07-10T17:01:31.441Z,76.10
2017-07-10T17:03:58.512Z,76.00
2017-07-10T17:06:25.662Z,76.20
2017-07-10T17:08:53.510Z,76.30
2017-07-10T17:11:20.569Z,76.20
2017-07-10T17:13:48.028Z,76.60
2017-07-10T17:16:15.510Z,76.70
2017-07-10T17:18:43.466Z,76.80
2017-07-10T17:21:10.500Z,76.80
2017-07-10T17:23:38.898Z,76.40
2017-07-10T17:26:05.962Z,76.40
2017-07-10T17:28:32.984Z,76.70
2017-07-10T17:31:00.021Z,76.90
2017-07-10T17:33:27.058Z,76.80
2017-07-10T17:35:54.497Z,76.80
2017-07-10T17:38:21.532Z,76.80
2017-07-10T17:40:48.561Z,76.60
2017-07-10T17:43:15.609Z,76.50
2017-07-10T17:45:43.609Z,76.60
2017-07-10T17:48:10.680Z,77.00
2017-07-10T17:50:38.674Z,76.90
2017-07-10T17:53:05.720Z,76.60
2017-07-10T17:55:32.741Z,76.70
2017-07-10T17:57:59.814Z,76.70
2017-07-10T18:00:26.864Z,76.80
2017-07-10T18:02:53.885Z,76.40
2017-07-10T18:05:21.872Z,76.70
2017-07-10T18:07:48.996Z,76.60
2017-07-10T18:10:16.461Z,76.70
2017-07-10T18:12:44.522Z,76.70
2017-07-10T18:15:11.565Z,76.50
2017-07-10T18:17:39.038Z,76.30
2017-07-10T18:20:06.099Z,76.30
2017-07-10T18:22:33.117Z,76.30
2017-07-10T18:25:00.576Z,76.00
2017-07-10T18:27:27.642Z,76.10
2017-07-10T18:29:54.682Z,75.70
2017-07-10T18:32:21.706Z,75.80
2017-07-10T18:34:49.146Z,75.80
2017-07-10T18:37:16.294Z,75.70
2017-07-10T18:39:44.213Z,75.80
2017-07-10T18:42:11.232Z,76.00
2017-07-10T18:44:38.281Z,76.40
2017-07-10T18:47:05.329Z,76.40
2017-07-10T18:49:33.285Z,76.40
2017-07-10T18:52:00.755Z,76.10
2017-07-10T18:54:27.781Z,76.20
2017-07-10T18:56:55.258Z,76.20
2017-07-10T18:59:22.305Z,76.30
2017-07-10T19:01:49.449Z,76.30
2017-07-10T19:04:16.910Z,76.40
2017-07-10T19:06:43.978Z,76.40
2017-07-10T19:09:11.117Z,76.50
2017-07-10T19:11:39.095Z,76.70
2017-07-10T19:14:06.127Z,76.60
2017-07-10T19:16:34.126Z,76.50
2017-07-10T19:19:01.237Z,76.50
2017-07-10T19:21:28.689Z,76.70
2017-07-10T19:23:56.152Z,76.80
2017-07-10T19:26:23.232Z,76.80
2017-07-10T19:28:50.344Z,76.70
2017-07-10T19:31:17.389Z,76.30
2017-07-10T19:33:44.809Z,76.70
2017-07-10T19:36:11.893Z,76.70
2017-07-10T19:38:39.353Z,76.80
2017-07-10T19:41:06.386Z,76.80
2017-07-10T19:43:33.854Z,76.80
2017-07-10T19:46:01.829Z,76.80
2017-07-10T19:48:28.974Z,76.90
2017-07-10T19:50:56.384Z,77.10
2017-07-10T19:53:24.397Z,77.10
2017-07-10T19:55:51.445Z,77.20
2017-07-10T19:58:19.510Z,77.20
2017-07-10T20:00:46.991Z,77.30
2017-07-10T20:03:14.117Z,77.30
2017-07-10T20:05:41.985Z,77.30
2017-07-10T20:08:09.233Z,77.40
2017-07-10T20:10:36.281Z,77.40
2017-07-10T20:13:03.329Z,77.50
2017-07-10T20:15:30.476Z,77.60
2017-07-10T20:17:58.436Z,77.80
2017-07-10T20:20:25.876Z,77.90
2017-07-10T20:22:53.389Z,77.90
2017-07-10T20:25:20.439Z,77.80
2017-07-10T20:27:48.412Z,77.90
2017-07-10T20:30:15.433Z,78.00
2017-07-10T20:32:43.489Z,77.90
2017-07-10T20:35:10.540Z,77.90
2017-07-10T20:37:37.630Z,77.90
2017-07-10T20:40:04.733Z,78.00
2017-07-10T20:42:32.718Z,78.00
2017-07-10T20:44:59.741Z,78.00
2017-07-10T20:47:27.201Z,78.20
2017-07-10T20:49:54.228Z,78.20
2017-07-10T20:52:21.285Z,78.10
2017-07-10T20:54:48.710Z,78.20
2017-07-10T20:57:15.802Z,78.20
2017-07-10T20:59:42.849Z,78.20
2017-07-10T21:02:09.893Z,78.10
2017-07-10T21:04:38.169Z,78.30
2017-07-10T21:07:05.209Z,78.30
2017-07-10T21:09:32.273Z,78.30
2017-07-10T21:11:59.300Z,78.30
2017-07-10T21:14:27.600Z,78.40
2017-07-10T21:16:54.734Z,78.40
2017-07-10T21:19:21.765Z,78.30
2017-07-10T21:21:49.237Z,78.20
2017-07-10T21:24:16.285Z,78.20
2017-07-10T21:26:43.438Z,77.80
2017-07-10T21:29:10.481Z,77.90
2017-07-10T21:31:38.469Z,77.70
2017-07-10T21:34:05.490Z,77.80
2017-07-10T21:36:32.517Z,77.80
2017-07-10T21:39:00.020Z,78.10
2017-07-10T21:41:28.002Z,78.00
2017-07-10T21:43:55.050Z,77.70
2017-07-10T21:46:23.004Z,77.70
2017-07-10T21:48:50.078Z,77.50
2017-07-10T21:51:17.120Z,77.60
2017-07-10T21:53:44.143Z,77.60
2017-07-10T21:56:11.182Z,77.60
2017-07-10T21:58:38.214Z,77.70
2017-07-10T22:01:05.697Z,77.90
2017-07-10T22:03:32.713Z,77.90
2017-07-10T22:05:59.866Z,77.60
2017-07-10T22:08:26.909Z,77.60
2017-07-10T22:10:54.359Z,77.70
2017-07-10T22:13:21.825Z,77.80
2017-07-10T22:15:48.865Z,77.80
2017-07-10T22:18:17.258Z,77.70
2017-07-10T22:20:44.297Z,77.70
2017-07-10T22:23:11.341Z,77.70
2017-07-10T22:25:38.801Z,77.80
2017-07-10T22:28:06.389Z,77.80
2017-07-10T22:30:33.419Z,77.90
2017-07-10T22:33:00.552Z,78.00
2017-07-10T22:35:27.597Z,78.10
2017-07-10T22:37:55.857Z,78.30
2017-07-10T22:40:23.338Z,78.30
2017-07-10T22:42:50.376Z,78.30
2017-07-10T22:45:17.813Z,78.30
2017-07-10T22:47:45.315Z,78.30
2017-07-10T22:50:13.279Z,78.30
2017-07-10T22:52:40.405Z,78.30
2017-07-10T22:55:07.495Z,78.30
2017-07-10T22:57:34.601Z,78.20
2017-07-10T23:00:02.045Z,78.30
2017-07-10T23:02:29.517Z,78.20
2017-07-10T23:04:56.546Z,78.20
2017-07-10T23:07:23.608Z,78.20
2017-07-10T23:09:50.658Z,78.20
2017-07-10T23:12:17.700Z,78.20
2017-07-10T23:14:45.161Z,78.40
2017-07-10T23:17:12.229Z,78.30
2017-07-10T23:19:39.353Z,78.40
2017-07-10T23:22:06.812Z,78.50
2017-07-10T23:24:34.290Z,78.50
2017-07-10T23:27:01.309Z,78.50
2017-07-10T23:29:29.576Z,78.50
2017-07-10T23:31:57.009Z,78.50
2017-07-10T23:34:25.021Z,78.50
2017-07-10T23:36:52.065Z,78.60
2017-07-10T23:39:20.051Z,78.60
2017-07-10T23:41:47.077Z,78.60
2017-07-10T23:44:14.137Z,78.60
2017-07-10T23:46:42.137Z,78.60
2017-07-10T23:49:09.192Z,78.60
2017-07-10T23:51:36.313Z,78.70
2017-07-10T23:54:03.395Z,78.70
2017-07-10T23:56:31.657Z,78.70
2017-07-10T23:58:59.161Z,78.80
